Catàleg de serveis del Meteocat

Dades de l'estació automàtica Benissanet

?
?
Resum diari 22:30 TU
Dades diàries de l'estació meteorològica
Temperatura mitjana 10.6 °C
Temperatura màxima 17.6 °C 14:02 TU
Temperatura mínima 6.6 °C 22:29 TU
Humitat relativa mitjana 92%
Precipitació acumulada 2.9 mm
Ratxa màxima del vent (10 m) 47.9 km/h - 257º 16:18 TU
Irradiació solar global 5.3 MJ/m2

El tram horari està expressat en Temps Universal (TU). Cal sumar una hora en horari d'hivern i dues en horari d'estiu per passar a l'hora oficial.

Benissanet

Metadades estació meteorol´gica
Municipi Benissanet
Comarca Ribera d'Ebre
Altitud 32 m
Data alta 14.07.1993
Estat actual Operativa
Dades de període
Període
TU
TM
°C
TX
°C
TN
°C
HRM
%
PPT
mm
VVM (10 m)
km/h
DVM (10 m)
graus
VVX (10 m)
km/h
RS
W/m2
00:00 - 00:30 8.7 9.0 8.6 98 0.0 1.1 128 3.6 0
00:30 - 01:00 8.6 9.1 8.1 98 0.0 1.8 189 5.4 0
01:00 - 01:30 9.0 9.1 8.9 98 0.0 1.8 324 5.4 0
01:30 - 02:00 8.9 9.1 8.8 98 0.0 0.7 89 2.9 0
02:00 - 02:30 8.9 9.1 8.4 98 0.0 0.4 166 2.5 0
02:30 - 03:00 8.2 8.8 7.8 98 0.0 0.7 278 3.6 0
03:00 - 03:30 8.0 8.1 7.9 98 0.0 1.4 254 4.0 0
03:30 - 04:00 8.6 8.9 8.1 99 0.0 0.4 189 2.9 0
04:00 - 04:30 8.8 8.9 8.7 99 0.0 1.1 354 2.5 0
04:30 - 05:00 8.8 8.9 8.6 99 0.1 1.4 256 4.3 0
05:00 - 05:30 9.1 9.2 8.9 99 0.0 1.1 181 5.0 0
05:30 - 06:00 9.0 9.1 8.9 99 0.0 3.2 304 5.0 0
06:00 - 06:30 9.0 9.0 8.9 99 0.0 1.8 224 3.2 0
06:30 - 07:00 9.1 9.1 9.0 99 0.0 2.5 162 5.4 2
07:00 - 07:30 9.1 9.2 9.1 99 0.0 2.2 151 5.4 20
07:30 - 08:00 9.2 9.3 9.2 99 0.0 2.2 277 4.7 24
08:00 - 08:30 9.4 9.6 9.2 99 0.0 1.8 219 4.0 63
08:30 - 09:00 9.6 9.7 9.6 98 0.0 0.7 261 2.9 63
09:00 - 09:30 10.0 10.3 9.7 98 0.0 0.7 51 3.2 114
09:30 - 10:00 10.6 10.8 10.3 93 0.0 1.1 35 3.6 138
10:00 - 10:30 10.9 11.2 10.7 92 0.0 1.4 98 4.7 134
10:30 - 11:00 11.3 11.5 11.2 91 0.0 2.5 155 6.8 125
11:00 - 11:30 11.5 11.9 11.3 91 0.1 2.2 185 6.1 127
11:30 - 12:00 12.3 13.6 11.8 87 0.0 1.1 170 4.0 294
12:00 - 12:30 14.5 15.4 13.7 75 0.0 2.5 33 7.9 577
12:30 - 13:00 14.7 15.3 14.2 75 0.0 4.0 14 8.3 236
13:00 - 13:30 14.7 15.2 14.5 74 0.0 2.9 346 6.1 173
13:30 - 14:00 15.4 17.4 14.9 69 0.0 1.1 217 5.0 322
14:00 - 14:30 16.3 17.6 15.7 68 0.0 2.5 294 6.8 220
14:30 - 15:00 15.8 16.2 15.6 72 0.0 2.9 222 10.8 113
15:00 - 15:30 16.2 16.7 15.5 70 0.0 10.4 189 17.6 151
15:30 - 16:00 15.4 15.5 15.3 77 0.0 8.3 197 15.1 46
16:00 - 16:30 14.3 15.2 11.9 80 2.6 17.3 248 47.9 5
16:30 - 17:00 11.9 12.0 11.8 87 0.1 7.2 179 25.6 0
17:00 - 17:30 11.6 11.9 11.3 90 0.0 6.5 82 16.2 0
17:30 - 18:00 11.1 11.3 10.8 93 0.0 5.8 24 11.2 0
18:00 - 18:30 10.8 10.9 10.7 94 0.0 1.1 4 6.5 0
18:30 - 19:00 10.3 10.7 10.1 95 0.0 5.0 343 8.6 0
19:00 - 19:30 10.0 10.2 9.7 96 0.0 5.8 20 10.4 0
19:30 - 20:00 9.5 9.7 9.2 96 0.0 4.7 9 8.3 0
20:00 - 20:30 8.8 9.1 8.5 97 0.0 7.6 332 10.8 0
20:30 - 21:00 8.5 8.5 8.3 97 0.0 8.3 328 10.8 0
21:00 - 21:30 8.3 8.4 8.0 97 0.0 2.5 356 9.4 0
21:30 - 22:00 7.8 8.2 7.2 98 0.0 1.4 127 5.0 0
22:00 - 22:30 7.2 7.8 6.6 98 0.0 1.4 98 4.0 0
22:30 - 23:00 7.2 7.7 6.7 98 0.0 4.0 353 8.6 0

Les dades en taronja només han passat un control de qualitat automàtic. Resta pendent la seva validació definitiva.